sensor_id;sensor_type;location;lat;lon;timestamp;pressure;altitude;pressure_sealevel;temperature;humidity
36304;BME280;22335;49.800;8.596;2023-12-29T00:04:37;100440.88;;;12.69;70.04
36304;BME280;22335;49.800;8.596;2023-12-29T00:11:21;100434.09;;;12.67;69.79
36304;BME280;22335;49.800;8.596;2023-12-29T00:18:06;100421.78;;;12.64;69.73
36304;BME280;22335;49.800;8.596;2023-12-29T00:24:50;100419.03;;;12.64;69.25
36304;BME280;22335;49.800;8.596;2023-12-29T00:31:33;100422.16;;;12.58;69.57
36304;BME280;22335;49.800;8.596;2023-12-29T00:38:18;100419.28;;;12.49;69.14
36304;BME280;22335;49.800;8.596;2023-12-29T00:45:03;100413.47;;;12.51;68.69
36304;BME280;22335;49.800;8.596;2023-12-29T00:51:47;100409.94;;;12.50;69.15
36304;BME280;22335;49.800;8.596;2023-12-29T00:58:34;100403.09;;;12.48;69.00
36304;BME280;22335;49.800;8.596;2023-12-29T01:05:18;100361.56;;;12.03;69.08
36304;BME280;22335;49.800;8.596;2023-12-29T01:12:02;100396.69;;;12.19;69.19
36304;BME280;22335;49.800;8.596;2023-12-29T01:18:47;100389.25;;;12.20;69.44
36304;BME280;22335;49.800;8.596;2023-12-29T01:25:31;100343.78;;;12.00;69.42
36304;BME280;22335;49.800;8.596;2023-12-29T01:32:14;100350.97;;;11.96;69.15
36304;BME280;22335;49.800;8.596;2023-12-29T01:38:59;100392.31;;;12.18;69.38
36304;BME280;22335;49.800;8.596;2023-12-29T01:45:44;100373.66;;;12.20;68.83
36304;BME280;22335;49.800;8.596;2023-12-29T01:52:29;100367.91;;;12.17;68.74
36304;BME280;22335;49.800;8.596;2023-12-29T01:59:14;100379.84;;;12.07;69.45
36304;BME280;22335;49.800;8.596;2023-12-29T02:05:59;100362.31;;;12.08;69.17
36304;BME280;22335;49.800;8.596;2023-12-29T02:12:44;100358.97;;;12.11;69.44
36304;BME280;22335;49.800;8.596;2023-12-29T02:19:38;100331.06;;;11.90;69.90
36304;BME280;22335;49.800;8.596;2023-12-29T02:26:27;100348.81;;;12.12;69.89
36304;BME280;22335;49.800;8.596;2023-12-29T02:33:16;100356.53;;;12.10;69.94
36304;BME280;22335;49.800;8.596;2023-12-29T02:40:02;100350.81;;;12.06;70.07
36304;BME280;22335;49.800;8.596;2023-12-29T02:46:47;100361.47;;;12.08;70.10
36304;BME280;22335;49.800;8.596;2023-12-29T02:53:32;100367.91;;;12.17;70.00
36304;BME280;22335;49.800;8.596;2023-12-29T03:00:16;100367.56;;;12.23;69.26
36304;BME280;22335;49.800;8.596;2023-12-29T03:07:01;100369.03;;;12.35;68.76
36304;BME280;22335;49.800;8.596;2023-12-29T03:13:44;100379.94;;;12.40;68.58
36304;BME280;22335;49.800;8.596;2023-12-29T03:20:28;100383.03;;;12.52;68.14
36304;BME280;22335;49.800;8.596;2023-12-29T03:27:12;100363.59;;;12.49;67.92
36304;BME280;22335;49.800;8.596;2023-12-29T03:33:56;100343.47;;;12.39;67.62
36304;BME280;22335;49.800;8.596;2023-12-29T03:40:40;100350.94;;;12.34;67.61
36304;BME280;22335;49.800;8.596;2023-12-29T04:02:26;100313.63;;;12.00;66.96
36304;BME280;22335;49.800;8.596;2023-12-29T04:09:11;100314.22;;;11.97;67.44
36304;BME280;22335;49.800;8.596;2023-12-29T04:15:54;100300.59;;;11.92;67.26
36304;BME280;22335;49.800;8.596;2023-12-29T04:22:39;100288.16;;;11.81;67.22
36304;BME280;22335;49.800;8.596;2023-12-29T04:29:22;100286.88;;;11.73;67.29
36304;BME280;22335;49.800;8.596;2023-12-29T04:36:06;100286.44;;;11.66;67.37
36304;BME280;22335;49.800;8.596;2023-12-29T04:42:51;100263.50;;;11.43;67.23
36304;BME280;22335;49.800;8.596;2023-12-29T04:49:34;100288.59;;;11.50;67.17
36304;BME280;22335;49.800;8.596;2023-12-29T04:56:18;100294.06;;;11.50;67.31
36304;BME280;22335;49.800;8.596;2023-12-29T05:03:03;100298.13;;;11.52;67.41
36304;BME280;22335;49.800;8.596;2023-12-29T05:09:46;100315.53;;;11.62;67.00
36304;BME280;22335;49.800;8.596;2023-12-29T05:16:30;100285.03;;;11.49;66.61
36304;BME280;22335;49.800;8.596;2023-12-29T05:23:14;100330.94;;;11.76;66.56
36304;BME280;22335;49.800;8.596;2023-12-29T05:29:58;100315.47;;;11.86;66.56
36304;BME280;22335;49.800;8.596;2023-12-29T05:36:41;100296.84;;;11.88;66.20
36304;BME280;22335;49.800;8.596;2023-12-29T05:43:27;100295.78;;;11.84;66.25
36304;BME280;22335;49.800;8.596;2023-12-29T05:50:11;100305.09;;;11.83;66.10
36304;BME280;22335;49.800;8.596;2023-12-29T05:56:55;100289.75;;;11.82;66.17
36304;BME280;22335;49.800;8.596;2023-12-29T06:03:40;100289.75;;;11.82;66.09
36304;BME280;22335;49.800;8.596;2023-12-29T06:10:24;100299.03;;;11.86;66.06
36304;BME280;22335;49.800;8.596;2023-12-29T06:17:07;100303.94;;;11.89;66.12
36304;BME280;22335;49.800;8.596;2023-12-29T06:23:52;100310.75;;;11.91;66.10
36304;BME280;22335;49.800;8.596;2023-12-29T06:30:36;100298.28;;;11.80;66.65
36304;BME280;22335;49.800;8.596;2023-12-29T06:37:19;100292.44;;;11.68;67.29
36304;BME280;22335;49.800;8.596;2023-12-29T06:44:04;100294.94;;;11.64;67.64
36304;BME280;22335;49.800;8.596;2023-12-29T06:50:48;100307.81;;;11.64;67.71
36304;BME280;22335;49.800;8.596;2023-12-29T06:57:32;100311.09;;;11.66;68.07
36304;BME280;22335;49.800;8.596;2023-12-29T07:04:17;100303.69;;;11.66;68.32
36304;BME280;22335;49.800;8.596;2023-12-29T07:11:00;100316.78;;;11.69;68.53
36304;BME280;22335;49.800;8.596;2023-12-29T07:17:44;100314.44;;;11.63;68.42
36304;BME280;22335;49.800;8.596;2023-12-29T07:24:29;100325.53;;;11.71;68.88
36304;BME280;22335;49.800;8.596;2023-12-29T07:31:13;100323.63;;;11.72;68.69
36304;BME280;22335;49.800;8.596;2023-12-29T07:37:57;100319.38;;;11.80;68.79
36304;BME280;22335;49.800;8.596;2023-12-29T07:44:43;100320.16;;;11.85;68.87
36304;BME280;22335;49.800;8.596;2023-12-29T07:51:26;100323.38;;;11.92;68.92
36304;BME280;22335;49.800;8.596;2023-12-29T07:58:10;100332.75;;;12.05;68.59
36304;BME280;22335;49.800;8.596;2023-12-29T08:04:55;100334.75;;;12.18;68.32
36304;BME280;22335;49.800;8.596;2023-12-29T08:11:38;100336.31;;;12.38;67.79
36304;BME280;22335;49.800;8.596;2023-12-29T08:18:24;100337.19;;;12.53;67.53
36304;BME280;22335;49.800;8.596;2023-12-29T08:25:09;100336.72;;;12.64;66.90
36304;BME280;22335;49.800;8.596;2023-12-29T08:31:52;100334.81;;;12.79;66.55
36304;BME280;22335;49.800;8.596;2023-12-29T08:38:36;100332.38;;;12.91;66.42
36304;BME280;22335;49.800;8.596;2023-12-29T08:45:20;100328.22;;;12.93;65.78
36304;BME280;22335;49.800;8.596;2023-12-29T08:52:04;100338.78;;;13.00;66.02
36304;BME280;22335;49.800;8.596;2023-12-29T08:58:47;100328.72;;;13.09;65.15
36304;BME280;22335;49.800;8.596;2023-12-29T09:05:32;100323.88;;;13.20;64.86
36304;BME280;22335;49.800;8.596;2023-12-29T09:12:16;100316.88;;;13.28;64.81
36304;BME280;22335;49.800;8.596;2023-12-29T09:18:59;100320.53;;;13.37;64.65
36304;BME280;22335;49.800;8.596;2023-12-29T09:25:45;100327.25;;;13.45;65.01
36304;BME280;22335;49.800;8.596;2023-12-29T09:32:28;100330.41;;;13.38;64.89
36304;BME280;22335;49.800;8.596;2023-12-29T09:39:12;100332.84;;;13.40;64.84
36304;BME280;22335;49.800;8.596;2023-12-29T09:45:58;100330.69;;;13.36;65.37
36304;BME280;22335;49.800;8.596;2023-12-29T09:52:42;100322.88;;;13.30;65.32
36304;BME280;22335;49.800;8.596;2023-12-29T09:59:26;100315.00;;;13.09;65.47
36304;BME280;22335;49.800;8.596;2023-12-29T10:06:13;100337.59;;;13.20;66.00
36304;BME280;22335;49.800;8.596;2023-12-29T10:13:04;100338.91;;;13.09;66.05
36304;BME280;22335;49.800;8.596;2023-12-29T10:19:55;100303.50;;;12.80;66.33
36304;BME280;22335;49.800;8.596;2023-12-29T10:26:46;100325.91;;;13.01;66.58
36304;BME280;22335;49.800;8.596;2023-12-29T10:33:30;100309.72;;;13.13;66.45
36304;BME280;22335;49.800;8.596;2023-12-29T10:40:18;100322.25;;;13.33;66.17
36304;BME280;22335;49.800;8.596;2023-12-29T10:47:10;100316.97;;;13.50;65.31
36304;BME280;22335;49.800;8.596;2023-12-29T10:53:55;100282.06;;;13.51;64.91
36304;BME280;22335;49.800;8.596;2023-12-29T11:00:38;100301.13;;;13.70;65.11
36304;BME280;22335;49.800;8.596;2023-12-29T11:07:33;100306.50;;;13.75;64.61
36304;BME280;22335;49.800;8.596;2023-12-29T11:14:17;100316.78;;;13.83;64.49
36304;BME280;22335;49.800;8.596;2023-12-29T11:21:01;100306.16;;;13.90;64.00
36304;BME280;22335;49.800;8.596;2023-12-29T11:27:48;100316.03;;;13.91;63.78
36304;BME280;22335;49.800;8.596;2023-12-29T11:34:35;100309.25;;;14.11;63.75
36304;BME280;22335;49.800;8.596;2023-12-29T11:41:27;100311.88;;;14.16;63.67
36304;BME280;22335;49.800;8.596;2023-12-29T11:48:53;100318.47;;;14.15;63.43
36304;BME280;22335;49.800;8.596;2023-12-29T11:55:38;100314.47;;;14.21;62.87
36304;BME280;22335;49.800;8.596;2023-12-29T12:02:27;100306.13;;;14.26;62.97
36304;BME280;22335;49.800;8.596;2023-12-29T12:09:17;100289.25;;;14.19;62.24
36304;BME280;22335;49.800;8.596;2023-12-29T12:16:06;100291.16;;;14.41;62.23
36304;BME280;22335;49.800;8.596;2023-12-29T12:22:56;100279.03;;;14.42;62.26
36304;BME280;22335;49.800;8.596;2023-12-29T12:29:42;100284.41;;;14.47;62.35
36304;BME280;22335;49.800;8.596;2023-12-29T12:36:26;100282.22;;;14.58;61.92
36304;BME280;22335;49.800;8.596;2023-12-29T12:43:13;100271.72;;;14.60;61.61
36304;BME280;22335;49.800;8.596;2023-12-29T12:49:58;100272.06;;;14.67;61.46
36304;BME280;22335;49.800;8.596;2023-12-29T12:56:43;100248.59;;;14.70;61.58
36304;BME280;22335;49.800;8.596;2023-12-29T13:03:27;100212.22;;;14.50;61.31
36304;BME280;22335;49.800;8.596;2023-12-29T13:10:12;100262.59;;;14.82;61.39
36304;BME280;22335;49.800;8.596;2023-12-29T13:16:55;100253.00;;;14.80;61.45
36304;BME280;22335;49.800;8.596;2023-12-29T13:23:39;100244.56;;;14.76;61.50
36304;BME280;22335;49.800;8.596;2023-12-29T13:30:25;100245.09;;;14.78;61.45
36304;BME280;22335;49.800;8.596;2023-12-29T13:37:16;100263.19;;;14.70;61.55
36304;BME280;22335;49.800;8.596;2023-12-29T13:44:01;100257.03;;;14.65;61.82
36304;BME280;22335;49.800;8.596;2023-12-29T13:50:47;100245.81;;;14.61;61.65
36304;BME280;22335;49.800;8.596;2023-12-29T13:57:31;100240.75;;;14.55;61.87
36304;BME280;22335;49.800;8.596;2023-12-29T14:04:16;100238.19;;;14.58;61.55
36304;BME280;22335;49.800;8.596;2023-12-29T14:11:08;100237.88;;;14.60;61.55
36304;BME280;22335;49.800;8.596;2023-12-29T14:17:57;100190.28;;;14.28;61.71
36304;BME280;22335;49.800;8.596;2023-12-29T14:24:40;100239.50;;;14.61;61.68
36304;BME280;22335;49.800;8.596;2023-12-29T14:31:25;100250.69;;;14.64;61.61
36304;BME280;22335;49.800;8.596;2023-12-29T14:38:09;100257.03;;;14.65;61.29
36304;BME280;22335;49.800;8.596;2023-12-29T14:44:58;100253.41;;;14.56;61.25
36304;BME280;22335;49.800;8.596;2023-12-29T14:51:42;100214.03;;;14.24;61.42
36304;BME280;22335;49.800;8.596;2023-12-29T14:58:26;100247.03;;;14.46;61.62
36304;BME280;22335;49.800;8.596;2023-12-29T15:05:10;100250.06;;;14.45;61.60
36304;BME280;22335;49.800;8.596;2023-12-29T15:11:55;100237.28;;;14.40;61.34
36304;BME280;22335;49.800;8.596;2023-12-29T15:18:38;100226.41;;;14.35;61.64
36304;BME280;22335;49.800;8.596;2023-12-29T15:25:21;100236.84;;;14.24;61.39
36304;BME280;22335;49.800;8.596;2023-12-29T15:32:07;100233.59;;;14.22;61.11
36304;BME280;22335;49.800;8.596;2023-12-29T15:38:51;100240.53;;;14.20;60.91
36304;BME280;22335;49.800;8.596;2023-12-29T15:45:35;100241.69;;;14.19;60.89
36304;BME280;22335;49.800;8.596;2023-12-29T15:52:19;100230.78;;;14.14;60.74
36304;BME280;22335;49.800;8.596;2023-12-29T15:59:03;100228.03;;;14.14;60.93
36304;BME280;22335;49.800;8.596;2023-12-29T16:05:46;100214.13;;;14.10;60.83
36304;BME280;22335;49.800;8.596;2023-12-29T16:12:31;100179.22;;;13.88;60.51
36304;BME280;22335;49.800;8.596;2023-12-29T16:19:15;100171.00;;;13.74;60.71
36304;BME280;22335;49.800;8.596;2023-12-29T16:26:04;100222.06;;;13.89;60.86
36304;BME280;22335;49.800;8.596;2023-12-29T16:32:50;100219.63;;;13.88;60.89
36304;BME280;22335;49.800;8.596;2023-12-29T16:39:33;100216.06;;;13.87;60.96
36304;BME280;22335;49.800;8.596;2023-12-29T16:46:16;100207.94;;;13.82;60.94
36304;BME280;22335;49.800;8.596;2023-12-29T16:53:01;100208.16;;;13.72;60.97
36304;BME280;22335;49.800;8.596;2023-12-29T16:59:45;100204.13;;;13.69;60.77
36304;BME280;22335;49.800;8.596;2023-12-29T17:06:28;100197.63;;;13.65;60.70
36304;BME280;22335;49.800;8.596;2023-12-29T17:13:13;100175.13;;;13.41;60.92
36304;BME280;22335;49.800;8.596;2023-12-29T17:19:57;100159.88;;;13.34;60.54
36304;BME280;22335;49.800;8.596;2023-12-29T17:26:40;100202.13;;;13.61;60.46
36304;BME280;22335;49.800;8.596;2023-12-29T17:33:25;100179.59;;;13.50;60.66
36304;BME280;22335;49.800;8.596;2023-12-29T17:40:09;100200.25;;;13.70;60.33
36304;BME280;22335;49.800;8.596;2023-12-29T17:46:53;100207.06;;;13.73;60.83
36304;BME280;22335;49.800;8.596;2023-12-29T17:53:38;100175.09;;;13.54;60.12
36304;BME280;22335;49.800;8.596;2023-12-29T18:00:25;100200.63;;;13.77;60.14
36304;BME280;22335;49.800;8.596;2023-12-29T18:07:08;100203.06;;;13.79;60.37
36304;BME280;22335;49.800;8.596;2023-12-29T18:13:54;100205.50;;;13.80;59.88
36304;BME280;22335;49.800;8.596;2023-12-29T18:20:37;100202.44;;;13.82;59.80
36304;BME280;22335;49.800;8.596;2023-12-29T18:27:23;100197.94;;;13.86;59.81
36304;BME280;22335;49.800;8.596;2023-12-29T18:34:10;100201.81;;;13.85;59.98
36304;BME280;22335;49.800;8.596;2023-12-29T18:40:53;100202.94;;;13.84;59.99
36304;BME280;22335;49.800;8.596;2023-12-29T18:47:37;100204.69;;;13.80;59.91
36304;BME280;22335;49.800;8.596;2023-12-29T18:54:22;100212.25;;;13.74;59.89
36304;BME280;22335;49.800;8.596;2023-12-29T19:01:05;100211.53;;;13.69;60.09
36304;BME280;22335;49.800;8.596;2023-12-29T19:07:49;100215.44;;;13.68;60.31
36304;BME280;22335;49.800;8.596;2023-12-29T19:14:34;100215.97;;;13.56;60.51
36304;BME280;22335;49.800;8.596;2023-12-29T19:21:17;100228.34;;;13.45;60.53
36304;BME280;22335;49.800;8.596;2023-12-29T19:28:03;100210.78;;;13.32;60.77
36304;BME280;22335;49.800;8.596;2023-12-29T19:34:48;100234.63;;;13.45;60.53
36304;BME280;22335;49.800;8.596;2023-12-29T19:41:32;100233.50;;;13.46;60.74
36304;BME280;22335;49.800;8.596;2023-12-29T19:48:17;100245.53;;;13.50;60.26
36304;BME280;22335;49.800;8.596;2023-12-29T19:55:02;100244.28;;;13.56;60.35
36304;BME280;22335;49.800;8.596;2023-12-29T20:01:46;100239.78;;;13.60;60.51
36304;BME280;22335;49.800;8.596;2023-12-29T20:08:29;100242.53;;;13.60;60.08
36304;BME280;22335;49.800;8.596;2023-12-29T20:15:14;100229.22;;;13.54;60.45
36304;BME280;22335;49.800;8.596;2023-12-29T20:21:58;100201.78;;;13.40;60.47
36304;BME280;22335;49.800;8.596;2023-12-29T20:28:41;100220.19;;;13.40;60.51
36304;BME280;22335;49.800;8.596;2023-12-29T20:35:26;100198.56;;;13.38;60.48
36304;BME280;22335;49.800;8.596;2023-12-29T20:42:10;100200.78;;;13.36;60.47
36304;BME280;22335;49.800;8.596;2023-12-29T20:48:53;100209.44;;;13.29;60.41
36304;BME280;22335;49.800;8.596;2023-12-29T20:55:38;100201.50;;;13.28;60.53
36304;BME280;22335;49.800;8.596;2023-12-29T21:02:21;100193.97;;;13.20;60.65
36304;BME280;22335;49.800;8.596;2023-12-29T21:09:06;100202.00;;;13.16;60.99
36304;BME280;22335;49.800;8.596;2023-12-29T21:15:53;100199.97;;;13.22;60.72
36304;BME280;22335;49.800;8.596;2023-12-29T21:22:37;100176.19;;;13.03;60.97
36304;BME280;22335;49.800;8.596;2023-12-29T21:29:21;100203.22;;;13.24;61.17
36304;BME280;22335;49.800;8.596;2023-12-29T21:36:07;100211.75;;;13.22;61.13
36304;BME280;22335;49.800;8.596;2023-12-29T21:43:01;100169.72;;;12.99;61.66
36304;BME280;22335;49.800;8.596;2023-12-29T21:49:44;100206.06;;;13.19;61.76
36304;BME280;22335;49.800;8.596;2023-12-29T21:56:29;100204.06;;;13.10;61.97
36304;BME280;22335;49.800;8.596;2023-12-29T22:03:12;100209.75;;;13.00;62.72
36304;BME280;22335;49.800;8.596;2023-12-29T22:09:57;100204.16;;;13.05;62.49
36304;BME280;22335;49.800;8.596;2023-12-29T22:16:42;100210.19;;;13.07;62.36
36304;BME280;22335;49.800;8.596;2023-12-29T22:23:25;100206.50;;;13.12;62.28
36304;BME280;22335;49.800;8.596;2023-12-29T22:30:09;100206.06;;;13.19;62.63
36304;BME280;22335;49.800;8.596;2023-12-29T22:36:55;100217.38;;;13.31;62.20
36304;BME280;22335;49.800;8.596;2023-12-29T22:43:39;100221.34;;;13.38;61.87
36304;BME280;22335;49.800;8.596;2023-12-29T22:50:23;100219.59;;;13.43;62.13
36304;BME280;22335;49.800;8.596;2023-12-29T22:57:07;100225.25;;;13.46;61.73
36304;BME280;22335;49.800;8.596;2023-12-29T23:03:51;100229.16;;;13.45;61.56
36304;BME280;22335;49.800;8.596;2023-12-29T23:10:34;100242.88;;;13.45;61.82
36304;BME280;22335;49.800;8.596;2023-12-29T23:17:20;100265.84;;;13.49;61.98
36304;BME280;22335;49.800;8.596;2023-12-29T23:24:04;100245.31;;;13.47;61.81
36304;BME280;22335;49.800;8.596;2023-12-29T23:30:47;100232.94;;;13.35;61.65
36304;BME280;22335;49.800;8.596;2023-12-29T23:37:32;100258.13;;;13.51;61.51
36304;BME280;22335;49.800;8.596;2023-12-29T23:44:16;100244.59;;;13.55;61.55
36304;BME280;22335;49.800;8.596;2023-12-29T23:50:59;100241.13;;;13.49;61.57
36304;BME280;22335;49.800;8.596;2023-12-29T23:57:45;100266.66;;;13.50;61.69
